createdAt,value
2023-04-05T00:01:21.444Z,98109.50
2023-04-05T00:06:26.595Z,98104.50
2023-04-05T00:11:32.804Z,98096.69
2023-04-05T00:16:36.347Z,98094.25
2023-04-05T00:21:40.736Z,98086.53
2023-04-05T00:26:45.436Z,98087.38
2023-04-05T00:31:48.887Z,98090.91
2023-04-05T00:36:52.131Z,98078.16
2023-04-05T00:41:57.185Z,98085.03
2023-04-05T00:47:00.482Z,98084.28
2023-04-05T00:52:04.169Z,98075.81
2023-04-05T00:57:09.065Z,98078.53
2023-04-05T01:02:18.675Z,98080.09
2023-04-05T01:07:30.336Z,98078.41
2023-04-05T01:12:37.039Z,98072.56
2023-04-05T01:17:42.074Z,98069.13
2023-04-05T01:23:14.981Z,98071.09
2023-04-05T01:28:47.510Z,98061.66
2023-04-05T01:33:59.979Z,98061.66
2023-04-05T01:39:05.592Z,98066.88
2023-04-05T01:44:08.819Z,98066.16
2023-04-05T01:49:13.308Z,98064.38
2023-04-05T01:54:17.444Z,98047.16
2023-04-05T01:59:20.807Z,98049.06
2023-04-05T02:04:25.822Z,98055.06
2023-04-05T02:09:28.987Z,98053.34
2023-04-05T02:14:32.255Z,98046.50
2023-04-05T02:19:40.912Z,98045.03
2023-04-05T02:24:44.593Z,98035.34
2023-04-05T02:29:47.825Z,98026.84
2023-04-05T02:34:53.113Z,98028.56
2023-04-05T02:39:59.341Z,98020.09
2023-04-05T02:45:02.568Z,98020.03
2023-04-05T02:50:08.601Z,98026.97
2023-04-05T02:55:18.331Z,98027.00
2023-04-05T03:00:22.442Z,98030.69
2023-04-05T03:05:28.801Z,98030.53
2023-04-05T03:10:35.084Z,98032.50
2023-04-05T03:15:47.625Z,98029.69
2023-04-05T03:20:56.923Z,98033.22
2023-04-05T03:26:01.418Z,98033.28
2023-04-05T03:31:07.977Z,98037.53
2023-04-05T03:36:16.592Z,98031.59
2023-04-05T03:41:22.068Z,98032.53
2023-04-05T03:46:25.409Z,98041.22
2023-04-05T03:51:30.190Z,98039.59
2023-04-05T03:56:34.120Z,98043.78
2023-04-05T04:01:46.421Z,98038.78
2023-04-05T04:06:52.688Z,98037.03
2023-04-05T04:11:59.815Z,98025.06
2023-04-05T04:17:03.449Z,98028.44
2023-04-05T04:22:33.230Z,98024.22
2023-04-05T04:27:57.547Z,98032.78
2023-04-05T04:33:22.057Z,98031.16
2023-04-05T04:38:35.921Z,98033.72
2023-04-05T04:43:51.684Z,98040.59
2023-04-05T04:49:13.766Z,98020.81
2023-04-05T04:54:23.836Z,98027.66
2023-04-05T04:59:26.995Z,98033.63
2023-04-05T05:04:30.228Z,98020.78
2023-04-05T05:09:34.965Z,98020.66
2023-04-05T05:14:38.245Z,98019.66
2023-04-05T05:19:41.487Z,98010.09
2023-04-05T05:24:46.585Z,98016.88
2023-04-05T05:29:49.805Z,98018.47
2023-04-05T05:34:53.046Z,98007.16
2023-04-05T05:39:57.606Z,98011.44
2023-04-05T05:45:06.879Z,98005.06
2023-04-05T05:50:10.917Z,98011.81
2023-04-05T05:55:15.551Z,98013.34
2023-04-05T06:00:20.014Z,98010.47
2023-04-05T06:05:23.130Z,98003.41
2023-04-05T06:10:27.717Z,98006.69
2023-04-05T06:15:32.610Z,98002.63
2023-04-05T06:20:35.836Z,98003.16
2023-04-05T06:25:40.839Z,98004.53
2023-04-05T06:30:45.102Z,98002.03
2023-04-05T06:35:48.323Z,97999.63
2023-04-05T06:40:53.008Z,97990.06
2023-04-05T06:45:57.640Z,97996.72
2023-04-05T06:51:01.789Z,97990.66
2023-04-05T06:56:06.845Z,97997.31
2023-04-05T07:01:10.232Z,97994.44
2023-04-05T07:06:13.664Z,97994.31
2023-04-05T07:11:18.279Z,97986.59
2023-04-05T07:16:23.757Z,97983.94
2023-04-05T07:21:27.096Z,97986.34
2023-04-05T07:26:35.028Z,97976.03
2023-04-05T07:31:39.311Z,97969.63
2023-04-05T07:36:42.555Z,97983.72
2023-04-05T07:41:47.234Z,97970.09
2023-04-05T07:46:50.635Z,97979.66
2023-04-05T07:51:56.704Z,97969.13
2023-04-05T07:57:01.553Z,97968.03
2023-04-05T08:02:14.129Z,97964.50
2023-04-05T08:07:18.899Z,97972.13
2023-04-05T08:12:23.805Z,97970.56
2023-04-05T08:17:28.422Z,97964.59
2023-04-05T08:22:32.106Z,97962.06
2023-04-05T08:27:36.934Z,97955.50
2023-04-05T08:32:41.151Z,97958.44
2023-04-05T08:37:44.727Z,97961.25
2023-04-05T08:42:55.740Z,97942.16
2023-04-05T08:47:59.917Z,97958.84
2023-04-05T08:53:03.602Z,97961.75
2023-04-05T08:58:14.583Z,97950.09
2023-04-05T09:03:22.476Z,97957.41
2023-04-05T09:08:29.069Z,97943.88
2023-04-05T09:13:34.685Z,97939.19
2023-04-05T09:18:38.040Z,97944.09
2023-04-05T09:23:53.157Z,97943.75
2023-04-05T09:28:57.840Z,97948.75
2023-04-05T09:34:03.693Z,97941.28
2023-04-05T09:39:08.332Z,97953.19
2023-04-05T09:44:13.514Z,97932.97
2023-04-05T09:49:33.941Z,97922.66
2023-04-05T09:54:43.522Z,97919.53
2023-04-05T09:59:49.713Z,97926.75
2023-04-05T10:04:53.369Z,97923.94
2023-04-05T10:09:58.121Z,97908.19
2023-04-05T10:15:04.309Z,97905.69
2023-04-05T10:20:15.593Z,97902.50
2023-04-05T10:25:27.436Z,97897.94
2023-04-05T10:30:36.960Z,97886.72
2023-04-05T10:35:51.369Z,97888.09
2023-04-05T10:40:58.583Z,97885.06
2023-04-05T10:46:05.320Z,97884.31
2023-04-05T10:51:08.793Z,97868.69
2023-04-05T10:56:13.403Z,97870.94
2023-04-05T11:01:19.798Z,97869.72
2023-04-05T11:06:25.434Z,97864.38
2023-04-05T11:11:28.986Z,97864.91
2023-04-05T11:16:41.711Z,97869.25
2023-04-05T11:21:45.648Z,97853.84
2023-04-05T11:26:56.627Z,97860.72
2023-04-05T11:32:07.237Z,97850.75
2023-04-05T11:37:10.613Z,97852.16
2023-04-05T11:42:13.883Z,97846.72
2023-04-05T11:47:21.913Z,97838.47
2023-04-05T11:52:25.790Z,97826.75
2023-04-05T11:57:29.437Z,97808.03
2023-04-05T12:02:37.242Z,97820.22
2023-04-05T12:07:40.908Z,97809.19
2023-04-05T12:12:47.733Z,97805.19
2023-04-05T12:17:54.748Z,97795.34
2023-04-05T12:22:58.520Z,97791.22
2023-04-05T12:28:09.080Z,97789.22
2023-04-05T12:33:13.696Z,97783.75
2023-04-05T12:38:17.713Z,97786.97
2023-04-05T12:43:20.920Z,97764.72
2023-04-05T12:48:27.008Z,97750.78
2023-04-05T12:53:30.385Z,97759.78
2023-04-05T12:58:35.859Z,97759.69
2023-04-05T13:03:40.800Z,97752.16
2023-04-05T13:08:43.969Z,97740.72
2023-04-05T13:13:47.111Z,97736.19
2023-04-05T13:18:51.623Z,97728.31
2023-04-05T13:23:54.776Z,97709.50
2023-04-05T13:28:57.961Z,97718.91
2023-04-05T13:34:02.414Z,97702.72
2023-04-05T13:39:05.852Z,97696.22
2023-04-05T13:44:09.268Z,97690.06
2023-04-05T13:49:13.886Z,97678.09
2023-04-05T13:54:17.959Z,97684.44
2023-04-05T13:59:21.534Z,97679.91
2023-04-05T14:04:26.540Z,97671.53
2023-04-05T14:09:30.505Z,97676.59
2023-04-05T14:14:33.877Z,97677.22
2023-04-05T14:19:38.779Z,97668.09
2023-04-05T14:24:42.132Z,97673.97
2023-04-05T14:29:46.755Z,97669.84
2023-04-05T14:34:51.531Z,97662.16
2023-04-05T14:39:54.862Z,97672.16
2023-04-05T14:44:58.087Z,97664.25
2023-04-05T14:50:03.248Z,97662.81
2023-04-05T14:55:07.415Z,97657.78
2023-04-05T15:00:12.494Z,97655.44
2023-04-05T15:05:17.427Z,97657.88
2023-04-05T15:10:20.793Z,97648.09
2023-04-05T15:15:24.169Z,97650.19
2023-04-05T15:20:28.890Z,97645.28
2023-04-05T15:25:32.359Z,97646.13
2023-04-05T15:30:37.750Z,97651.41
2023-04-05T15:35:42.549Z,97656.28
2023-04-05T15:40:49.591Z,97658.69
2023-04-05T15:45:53.066Z,97660.31
2023-04-05T15:50:57.808Z,97661.59
2023-04-05T15:56:01.203Z,97662.09
2023-04-05T16:01:04.574Z,97663.69
2023-04-05T16:06:10.835Z,97655.22
2023-04-05T16:11:14.427Z,97664.63
2023-04-05T16:16:29.824Z,97650.84
2023-04-05T16:21:45.451Z,97655.34
2023-04-05T16:26:48.778Z,97654.91
2023-04-05T16:31:52.433Z,97653.50
2023-04-05T16:36:57.877Z,97654.56
2023-04-05T16:42:01.415Z,97663.03
2023-04-05T16:47:04.806Z,97664.00
2023-04-05T16:52:10.511Z,97674.25
2023-04-05T16:57:14.473Z,97670.56
2023-04-05T17:02:18.090Z,97658.94
2023-04-05T17:07:22.800Z,97668.28
2023-04-05T17:12:26.098Z,97672.81
2023-04-05T17:17:30.749Z,97680.84
2023-04-05T17:22:37.582Z,97682.38
2023-04-05T17:27:41.369Z,97693.66
2023-04-05T17:32:46.291Z,97693.69
2023-04-05T17:37:52.824Z,97692.66
2023-04-05T17:42:56.011Z,97692.69
2023-04-05T17:47:59.436Z,97694.31
2023-04-05T17:53:04.383Z,97707.34
2023-04-05T17:58:07.698Z,97703.53
2023-04-05T18:03:13.198Z,97693.47
2023-04-05T18:08:18.156Z,97702.84
2023-04-05T18:13:21.429Z,97708.34
2023-04-05T18:18:25.066Z,97716.91
2023-04-05T18:23:29.976Z,97720.59
2023-04-05T18:28:34.392Z,97734.31
2023-04-05T18:33:39.398Z,97724.69
2023-04-05T18:38:44.080Z,97732.03
2023-04-05T18:43:53.421Z,97740.72
2023-04-05T18:48:57.767Z,97736.97
2023-04-05T18:54:02.974Z,97751.00
2023-04-05T18:59:06.783Z,97756.94
2023-04-05T19:04:10.544Z,97757.47
2023-04-05T19:09:16.761Z,97761.09
2023-04-05T19:14:20.946Z,97767.38
2023-04-05T19:19:24.417Z,97759.47
2023-04-05T19:24:30.355Z,97770.06
2023-04-05T19:29:35.599Z,97773.66
2023-04-05T19:34:40.177Z,97775.28
2023-04-05T19:39:45.761Z,97769.34
2023-04-05T19:44:52.205Z,97771.84
2023-04-05T19:49:57.810Z,97776.63
2023-04-05T19:55:03.531Z,97781.22
2023-04-05T20:00:29.443Z,97770.38
2023-04-05T20:05:58.117Z,97777.16
2023-04-05T20:11:11.148Z,97761.63
2023-04-05T20:16:15.975Z,97767.97
2023-04-05T20:21:20.027Z,97766.78
2023-04-05T20:26:29.062Z,97758.94
2023-04-05T20:31:35.207Z,97766.06
2023-04-05T20:36:44.499Z,97758.88
2023-04-05T20:41:49.223Z,97754.31
2023-04-05T20:46:54.027Z,97750.56
2023-04-05T20:51:57.706Z,97751.34
2023-04-05T20:57:02.561Z,97749.56
2023-04-05T21:02:05.878Z,97743.88
2023-04-05T21:07:08.989Z,97736.63
2023-04-05T21:12:13.935Z,97735.13
2023-04-05T21:17:17.155Z,97732.19
2023-04-05T21:22:21.377Z,97728.44
2023-04-05T21:27:27.339Z,97722.53
2023-04-05T21:32:30.883Z,97729.75
2023-04-05T21:37:34.174Z,97724.91
2023-04-05T21:42:38.851Z,97720.63
2023-04-05T21:47:42.538Z,97729.75
2023-04-05T21:52:46.512Z,97725.31
2023-04-05T21:57:51.465Z,97730.50
2023-04-05T22:02:54.943Z,97719.53
2023-04-05T22:07:58.815Z,97722.34
2023-04-05T22:13:03.795Z,97731.25
2023-04-05T22:18:07.244Z,97717.16
2023-04-05T22:23:10.629Z,97725.94
2023-04-05T22:28:15.781Z,97732.25
2023-04-05T22:33:19.041Z,97725.41
2023-04-05T22:38:22.199Z,97724.16
2023-04-05T22:43:27.890Z,97724.41
2023-04-05T22:48:31.381Z,97720.88
2023-04-05T22:53:34.568Z,97715.81
2023-04-05T22:58:39.241Z,97717.81
2023-04-05T23:03:42.759Z,97713.63
2023-04-05T23:08:46.226Z,97709.53
2023-04-05T23:13:52.049Z,97699.22
2023-04-05T23:18:55.192Z,97708.91
2023-04-05T23:23:58.441Z,97704.75
2023-04-05T23:29:03.517Z,97707.25
2023-04-05T23:34:06.717Z,97702.00
2023-04-05T23:39:10.058Z,97708.06
2023-04-05T23:44:14.769Z,97702.91
2023-04-05T23:49:18.084Z,97695.63
2023-04-05T23:54:21.456Z,97697.63
2023-04-05T23:59:26.301Z,97690.91
